Terminal Aerodrome Forecast
Issued by NWS

Home | Current Version | Previous Version | Text Only | Print | Product List | Glossary On
Versions: 1 2 3 4 5 6 7 8 9 10 11 12 13 14 15
000
FTUS46 KSEW 231504 AAA
TAFOLM
TAF AMD
KOLM 231504Z 2315/2412 00000KT P6SM SCT015 BKN080
      TEMPO 2315/2316 2SM BR
     FM231900 04004KT P6SM BKN070
     FM240300 00000KT P6SM SKC
     FM240600 00000KT 3SM BR SCT003
     FM241000 00000KT 1/4SM FG VV001=

USA.gov is the U.S. government's official web portal to all federal, state and local government web resources and services.